Time;durP1;ratioP1;P1;durP2;ratioP2;P2;SDS_P1;SDS_P2;PMS_P1;PMS_P2;Temp;Humidity;BMP_temperature;BMP_pressure;BME280_temperature;BME280_humidity;BME280_pressure;Samples;Min_cycle;Max_cycle;Signal;HPM_P1;HPM_P2
2021/11/28 00:00:52;;;;;;;73.33;43.13;;;5.80;99.90;;;;;;4955018;28;20213;-77
2021/11/28 00:03:19;;;;;;;45.97;23.50;;;5.80;99.90;;;;;;4954857;28;20189;-75
2021/11/28 00:05:56;;;;;;;51.13;29.53;;;5.70;99.90;;;;;;4955008;28;20183;-76
2021/11/28 00:15:53;;;;;;;47.60;24.60;;;5.80;99.90;;;;;;4948654;28;20629;-76
2021/11/28 00:18:19;;;;;;;43.63;25.23;;;5.70;99.90;;;;;;4944149;28;20199;-77
2021/11/28 00:20:45;;;;;;;40.70;22.47;;;5.80;99.90;;;;;;4937574;29;20234;-76
2021/11/28 00:23:10;;;;;;;42.83;23.77;;;5.70;99.90;;;;;;4935025;29;20196;-77
2021/11/28 00:25:36;;;;;;;43.27;23.30;;;5.80;99.90;;;;;;4935523;29;20204;-76
2021/11/28 00:28:03;;;;;;;45.57;24.37;;;5.70;99.90;;;;;;4937943;29;20222;-76
2021/11/28 00:30:29;;;;;;;49.50;26.53;;;5.70;99.90;;;;;;4935282;29;20188;-76
2021/11/28 00:32:58;;;;;;;47.73;26.23;;;5.70;99.90;;;;;;4935235;29;20271;-77
2021/11/28 00:35:23;;;;;;;47.07;24.33;;;5.70;99.90;;;;;;4935517;29;20188;-76
2021/11/28 00:37:49;;;;;;;46.17;24.20;;;5.70;99.90;;;;;;4930564;28;20210;-76
2021/11/28 00:40:15;;;;;;;44.60;24.80;;;5.80;99.90;;;;;;4954302;28;20219;-76
2021/11/28 00:42:41;;;;;;;47.27;23.93;;;5.80;99.90;;;;;;4941861;28;20195;-76
2021/11/28 00:45:07;;;;;;;46.40;24.73;;;5.80;99.90;;;;;;4951611;28;20632;-76
2021/11/28 00:47:33;;;;;;;43.77;24.17;;;5.80;99.90;;;;;;4954384;28;20226;-76
2021/11/28 00:52:32;;;;;;;43.97;22.87;;;5.80;99.90;;;;;;4949538;28;20191;-76
2021/11/28 00:54:58;;;;;;;42.67;23.57;;;5.80;99.90;;;;;;4949178;28;20203;-76
2021/11/28 00:57:25;;;;;;;44.03;22.87;;;5.90;99.90;;;;;;4952130;28;20198;-76
2021/11/28 00:59:51;;;;;;;42.60;23.30;;;6.00;99.90;;;;;;4941538;28;20211;-76
2021/11/28 01:02:17;;;;;;;42.93;24.27;;;5.90;99.90;;;;;;4948387;28;20183;-78
2021/11/28 01:04:44;;;;;;;46.60;25.33;;;5.90;99.90;;;;;;4952567;28;20183;-76
2021/11/28 01:07:10;;;;;;;41.63;23.33;;;5.80;99.90;;;;;;4940583;29;20191;-76
2021/11/28 01:09:36;;;;;;;49.53;26.37;;;5.90;99.90;;;;;;4940961;29;20191;-76
2021/11/28 01:12:03;;;;;;;39.63;23.77;;;6.00;99.90;;;;;;4946022;28;20270;-83
2021/11/28 01:14:28;;;;;;;45.03;23.67;;;6.00;99.90;;;;;;4918737;29;20192;-83
2021/11/28 01:16:54;;;;;;;46.50;23.60;;;6.00;99.90;;;;;;4927986;29;20652;-88
2021/11/28 01:19:20;;;;;;;41.27;23.30;;;6.00;99.90;;;;;;4922232;29;20195;-89
2021/11/28 01:21:50;;;;;;;41.90;23.53;;;6.00;99.90;;;;;;4920285;29;20216;-84
2021/11/28 01:24:15;;;;;;;43.17;23.33;;;6.10;99.90;;;;;;4917933;29;20207;-89
2021/11/28 01:26:41;;;;;;;41.83;21.80;;;6.20;99.90;;;;;;4927005;29;20277;-89
2021/11/28 01:29:06;;;;;;;44.90;23.93;;;6.10;99.90;;;;;;4918725;29;20200;-89
2021/11/28 01:31:32;;;;;;;40.63;22.23;;;6.20;99.90;;;;;;4919214;29;20244;-89
2021/11/28 01:33:57;;;;;;;35.37;21.13;;;6.30;99.90;;;;;;4945966;29;20200;-88
2021/11/28 01:36:23;;;;;;;39.77;21.33;;;6.30;99.90;;;;;;4921739;29;20188;-89
2021/11/28 01:38:49;;;;;;;35.43;20.00;;;6.20;99.90;;;;;;4918915;29;20192;-89
2021/11/28 01:41:15;;;;;;;37.47;20.93;;;6.30;99.90;;;;;;4932110;29;20218;-89
2021/11/28 01:43:41;;;;;;;35.27;19.73;;;6.40;99.90;;;;;;4918851;29;20278;-90
2021/11/28 01:46:07;;;;;;;35.40;20.27;;;6.30;99.90;;;;;;4935821;29;20641;-90
2021/11/28 01:48:34;;;;;;;39.83;19.87;;;6.30;99.90;;;;;;4918437;29;20210;-90
2021/11/28 01:51:02;;;;;;;36.20;19.53;;;6.30;99.90;;;;;;4935398;29;20180;-89
2021/11/28 01:53:28;;;;;;;34.80;19.63;;;6.40;99.90;;;;;;4919785;29;20199;-89
2021/11/28 01:55:55;;;;;;;37.87;19.17;;;6.50;99.90;;;;;;4922199;29;20206;-89
2021/11/28 01:58:21;;;;;;;30.90;18.70;;;6.40;99.90;;;;;;4921961;29;20695;-89
2021/11/28 02:00:51;;;;;;;30.10;17.67;;;6.30;99.90;;;;;;4922247;29;20215;-90
2021/11/28 02:03:18;;;;;;;38.47;19.67;;;6.30;99.90;;;;;;4939029;29;20184;-89
2021/11/28 02:05:49;;;;;;;31.80;17.83;;;6.20;99.90;;;;;;4921830;29;20258;-90
2021/11/28 02:08:15;;;;;;;34.53;17.40;;;6.30;99.90;;;;;;4922076;29;20184;-89
2021/11/28 02:10:42;;;;;;;35.43;17.43;;;6.20;99.90;;;;;;4935323;29;20184;-89
2021/11/28 02:13:07;;;;;;;29.50;15.63;;;6.40;99.90;;;;;;4921977;29;20271;-89
2021/11/28 02:15:34;;;;;;;28.13;15.33;;;6.60;99.90;;;;;;4921696;29;20274;-90
2021/11/28 02:18:00;;;;;;;30.87;15.40;;;6.50;99.90;;;;;;4921454;29;20184;-84
2021/11/28 02:20:30;;;;;;;26.77;14.50;;;6.50;99.90;;;;;;4921029;29;20218;-83
2021/11/28 02:22:57;;;;;;;25.10;14.63;;;6.60;99.90;;;;;;4945957;29;20640;-88
2021/11/28 02:25:26;;;;;;;28.00;15.43;;;6.60;99.90;;;;;;4940560;29;20305;-89
2021/11/28 02:27:53;;;;;;;23.63;14.40;;;6.60;99.90;;;;;;4921913;29;20176;-89
2021/11/28 02:30:19;;;;;;;25.77;15.90;;;6.60;99.90;;;;;;4921582;29;20188;-88
2021/11/28 02:32:47;;;;;;;25.70;15.73;;;6.70;99.90;;;;;;4937516;29;20213;-88
2021/11/28 02:35:14;;;;;;;27.90;15.77;;;6.70;99.90;;;;;;4931876;29;20183;-89
2021/11/28 02:37:44;;;;;;;32.20;16.97;;;6.60;99.90;;;;;;4921451;29;20180;-88
2021/11/28 02:40:12;;;;;;;31.47;17.47;;;6.70;99.90;;;;;;4921247;29;20268;-89
2021/11/28 02:42:37;;;;;;;31.23;17.00;;;6.70;99.90;;;;;;4921269;29;20236;-89
2021/11/28 02:45:04;;;;;;;32.50;19.20;;;6.60;99.90;;;;;;4927371;29;20199;-89
2021/11/28 02:47:29;;;;;;;32.73;18.17;;;6.70;99.90;;;;;;4928472;29;20184;-89
2021/11/28 02:49:55;;;;;;;33.77;18.47;;;6.70;99.90;;;;;;4920955;29;20199;-89
2021/11/28 02:52:21;;;;;;;36.90;20.23;;;6.70;99.90;;;;;;4921462;29;20550;-89
2021/11/28 02:54:47;;;;;;;40.57;22.17;;;6.70;99.90;;;;;;4921302;29;20266;-89
2021/11/28 02:57:12;;;;;;;47.97;23.17;;;6.70;99.90;;;;;;4921142;29;20649;-89
2021/11/28 02:59:38;;;;;;;42.60;23.53;;;6.60;99.90;;;;;;4920594;29;20206;-88
2021/11/28 03:02:05;;;;;;;47.33;24.40;;;6.60;99.90;;;;;;4920848;29;20494;-89
2021/11/28 03:04:31;;;;;;;42.23;23.90;;;6.70;99.90;;;;;;4920985;29;20207;-89
2021/11/28 03:06:56;;;;;;;45.70;23.77;;;6.60;99.90;;;;;;4920517;29;20663;-87
2021/11/28 03:09:23;;;;;;;49.40;24.80;;;6.40;99.90;;;;;;4920862;29;20296;-90
2021/11/28 03:11:48;;;;;;;46.23;23.83;;;6.50;99.90;;;;;;4920630;29;20324;-89
2021/11/28 03:14:14;;;;;;;55.93;26.93;;;6.50;99.90;;;;;;4920941;29;20227;-89
2021/11/28 03:16:40;;;;;;;55.93;26.47;;;6.60;99.90;;;;;;4933913;29;20222;-89
2021/11/28 03:19:05;;;;;;;61.77;29.47;;;6.60;99.90;;;;;;4920803;29;20733;-89
2021/11/28 03:21:33;;;;;;;58.77;29.30;;;6.70;99.90;;;;;;4920651;29;20224;-90
2021/11/28 03:24:02;;;;;;;61.87;29.17;;;6.70;99.90;;;;;;4937398;29;20185;-89
2021/11/28 03:26:40;;;;;;;58.97;28.77;;;6.70;99.90;;;;;;4930935;29;20289;-89
2021/11/28 03:29:13;;;;;;;61.23;27.90;;;6.60;99.90;;;;;;4921662;29;20207;-89
2021/11/28 03:31:43;;;;;;;58.87;28.77;;;6.60;99.90;;;;;;4920209;29;20184;-89
2021/11/28 03:34:10;;;;;;;57.80;28.40;;;6.60;99.90;;;;;;4921146;29;20566;-89
2021/11/28 03:36:41;;;;;;;58.60;28.63;;;6.50;99.90;;;;;;4947690;29;20204;-89
2021/11/28 03:39:09;;;;;;;56.83;26.67;;;6.50;99.90;;;;;;4940258;29;20176;-89
2021/11/28 03:41:36;;;;;;;62.87;29.27;;;6.40;99.90;;;;;;4920117;29;20208;-90
2021/11/28 03:44:03;;;;;;;52.53;26.73;;;6.50;99.90;;;;;;4937123;29;20194;-89
2021/11/28 03:46:29;;;;;;;56.63;28.20;;;6.50;99.90;;;;;;4919705;29;20652;-89
2021/11/28 03:48:59;;;;;;;54.20;27.43;;;6.40;99.90;;;;;;4920183;29;20202;-90
2021/11/28 03:51:26;;;;;;;57.00;27.53;;;6.40;99.90;;;;;;4920063;29;20180;-90
2021/11/28 03:53:52;;;;;;;57.33;27.03;;;6.30;99.90;;;;;;4920305;29;20319;-90
2021/11/28 03:56:18;;;;;;;57.87;26.40;;;6.30;99.90;;;;;;4920033;29;20976;-90
2021/11/28 03:58:44;;;;;;;56.10;27.67;;;6.20;99.90;;;;;;4920005;29;20184;-91
2021/11/28 04:01:15;;;;;;;56.03;27.43;;;6.20;99.90;;;;;;4936518;29;20270;-90
2021/11/28 04:03:41;;;;;;;59.07;28.37;;;6.30;99.90;;;;;;4919879;29;20179;-90
2021/11/28 04:06:07;;;;;;;58.90;29.40;;;6.40;99.90;;;;;;4919562;29;20667;-90
2021/11/28 04:08:33;;;;;;;60.30;28.90;;;6.50;99.90;;;;;;4922905;29;20195;-91
2021/11/28 04:11:00;;;;;;;59.80;28.63;;;6.50;99.90;;;;;;4929714;29;20188;-89
2021/11/28 04:13:26;;;;;;;64.43;29.90;;;6.40;99.90;;;;;;4919676;29;20181;-86
2021/11/28 04:15:52;;;;;;;62.23;29.73;;;6.40;99.90;;;;;;4919309;29;20243;-90
2021/11/28 04:18:18;;;;;;;64.03;29.30;;;6.40;99.90;;;;;;4919664;29;20610;-89
2021/11/28 04:20:45;;;;;;;60.33;28.50;;;6.50;99.90;;;;;;4919690;29;20270;-90
2021/11/28 04:23:11;;;;;;;59.97;28.10;;;6.40;99.90;;;;;;4919583;29;20290;-90
2021/11/28 04:25:38;;;;;;;61.70;27.83;;;6.40;99.90;;;;;;4923208;29;20191;-89
2021/11/28 04:28:04;;;;;;;60.33;26.77;;;6.30;99.90;;;;;;4928901;29;20191;-90
2021/11/28 04:30:30;;;;;;;60.23;27.73;;;6.30;99.90;;;;;;4919362;29;20234;-89
2021/11/28 04:32:56;;;;;;;60.80;29.43;;;6.30;99.90;;;;;;4919732;29;20259;-90
2021/11/28 04:35:22;;;;;;;62.30;29.73;;;6.30;99.90;;;;;;4919802;29;20190;-90
2021/11/28 04:37:48;;;;;;;58.10;28.23;;;6.30;99.90;;;;;;4919399;29;20640;-90
2021/11/28 04:40:14;;;;;;;59.80;28.70;;;6.40;99.90;;;;;;4919479;29;20219;-90
2021/11/28 04:42:40;;;;;;;53.50;27.63;;;6.30;99.90;;;;;;4919620;29;20656;-89
2021/11/28 04:45:07;;;;;;;57.40;27.07;;;6.30;99.90;;;;;;4932305;29;20191;-89
2021/11/28 04:47:33;;;;;;;52.40;26.03;;;6.40;99.90;;;;;;4919373;29;20532;-90
2021/11/28 04:49:59;;;;;;;50.97;26.47;;;6.40;99.90;;;;;;4919493;29;20219;-89
2021/11/28 04:52:25;;;;;;;53.57;26.37;;;6.20;99.90;;;;;;4919413;29;20180;-89
2021/11/28 04:54:50;;;;;;;50.90;25.80;;;6.20;99.90;;;;;;4919663;29;20184;-89
2021/11/28 04:57:19;;;;;;;52.47;25.67;;;6.20;99.90;;;;;;4919284;29;20629;-89
2021/11/28 04:59:45;;;;;;;46.40;24.60;;;6.30;99.90;;;;;;4918937;29;20279;-90
2021/11/28 05:02:11;;;;;;;53.63;25.20;;;6.30;99.90;;;;;;4919269;29;20587;-90
2021/11/28 05:04:36;;;;;;;50.83;24.80;;;6.30;99.90;;;;;;4919386;29;20213;-91
2021/11/28 05:07:03;;;;;;;49.57;24.40;;;6.30;99.90;;;;;;4932613;29;20184;-90
2021/11/28 05:09:29;;;;;;;46.93;23.47;;;6.30;99.90;;;;;;4919463;29;20227;-89
2021/11/28 05:11:54;;;;;;;49.03;24.40;;;6.40;99.90;;;;;;4919202;29;20220;-90
2021/11/28 05:14:20;;;;;;;45.23;23.63;;;6.30;99.90;;;;;;4919096;29;20192;-90
2021/11/28 05:16:47;;;;;;;44.27;23.77;;;6.20;99.90;;;;;;4935988;29;20320;-90
2021/11/28 05:19:13;;;;;;;45.87;25.10;;;6.20;99.90;;;;;;4918935;29;20196;-89
2021/11/28 05:21:39;;;;;;;47.43;23.57;;;6.20;99.90;;;;;;4918418;29;20331;-89
2021/11/28 05:24:04;;;;;;;51.20;24.67;;;6.30;99.90;;;;;;4920778;29;20275;-90
2021/11/28 05:26:31;;;;;;;42.30;23.53;;;6.40;99.90;;;;;;4918418;29;20212;-83
2021/11/28 05:28:56;;;;;;;46.07;23.10;;;6.30;99.90;;;;;;4919626;29;20187;-84
2021/11/28 05:31:22;;;;;;;47.53;23.43;;;6.30;99.90;;;;;;4935131;29;20657;-84
2021/11/28 05:33:49;;;;;;;45.93;23.87;;;6.20;99.90;;;;;;4925598;29;20184;-84
2021/11/28 05:36:16;;;;;;;47.70;24.30;;;6.10;99.90;;;;;;4921734;29;20246;-84
2021/11/28 05:38:43;;;;;;;41.60;22.30;;;6.00;99.90;;;;;;4922056;29;20636;-84
2021/11/28 05:41:09;;;;;;;44.27;23.37;;;6.10;99.90;;;;;;4921720;29;20222;-84
2021/11/28 05:43:41;;;;;;;46.07;22.07;;;6.10;99.90;;;;;;4938745;29;20187;-85
2021/11/28 05:46:07;;;;;;;41.83;21.73;;;6.10;99.90;;;;;;4921839;29;20703;-85
2021/11/28 05:48:33;;;;;;;40.17;22.37;;;6.20;99.90;;;;;;4921607;29;20561;-84
2021/11/28 05:50:59;;;;;;;43.80;22.33;;;6.30;99.90;;;;;;4921776;29;20192;-85
2021/11/28 05:53:25;;;;;;;46.83;23.27;;;6.30;99.90;;;;;;4926166;29;20194;-85
2021/11/28 05:55:51;;;;;;;40.87;20.50;;;6.40;99.90;;;;;;4947348;29;20219;-85
2021/11/28 05:58:17;;;;;;;41.07;20.73;;;6.40;99.90;;;;;;4921761;29;20180;-84
2021/11/28 06:00:43;;;;;;;39.87;20.43;;;6.40;99.90;;;;;;4921892;29;20223;-84
2021/11/28 06:03:09;;;;;;;45.30;21.87;;;6.40;99.90;;;;;;4921486;29;20187;-83
2021/11/28 06:05:35;;;;;;;43.73;21.77;;;6.30;99.90;;;;;;4921781;29;20190;-84
2021/11/28 06:08:01;;;;;;;40.23;20.83;;;6.30;99.90;;;;;;4934311;29;20193;-84
2021/11/28 06:10:26;;;;;;;39.60;19.80;;;6.20;99.90;;;;;;4921812;29;20271;-83
2021/11/28 06:12:52;;;;;;;37.77;20.23;;;6.30;99.90;;;;;;4921788;29;20187;-85
2021/11/28 06:15:18;;;;;;;42.07;21.00;;;6.30;99.90;;;;;;4924299;29;20242;-84
2021/11/28 06:17:43;;;;;;;40.73;20.33;;;6.40;99.90;;;;;;4948948;29;20266;-84
2021/11/28 06:20:09;;;;;;;41.93;21.70;;;6.30;99.90;;;;;;4921349;29;20608;-84
2021/11/28 06:22:38;;;;;;;38.70;20.63;;;6.20;99.90;;;;;;4921641;29;20596;-84
2021/11/28 06:25:07;;;;;;;38.47;20.77;;;6.30;99.90;;;;;;4921135;29;20279;-85
2021/11/28 06:27:33;;;;;;;35.67;18.40;;;6.30;99.90;;;;;;4921328;29;20208;-85
2021/11/28 06:29:59;;;;;;;36.03;19.03;;;6.30;99.90;;;;;;4932613;29;20188;-84
2021/11/28 06:32:24;;;;;;;34.00;18.13;;;6.20;99.90;;;;;;4922861;29;20238;-84
2021/11/28 06:34:51;;;;;;;36.33;18.13;;;6.30;99.90;;;;;;4951726;29;20177;-84
2021/11/28 06:37:17;;;;;;;34.70;18.73;;;6.20;99.90;;;;;;4921280;29;20202;-84
2021/11/28 06:39:43;;;;;;;33.23;18.20;;;6.40;99.90;;;;;;4950502;28;20265;-84
2021/11/28 06:42:09;;;;;;;36.17;18.37;;;6.50;99.90;;;;;;4921135;29;20753;-84
2021/11/28 06:44:35;;;;;;;35.20;19.50;;;6.30;99.90;;;;;;4920698;29;20278;-84
2021/11/28 06:47:00;;;;;;;35.73;17.63;;;6.40;99.90;;;;;;4920683;29;20184;-84
2021/11/28 06:49:27;;;;;;;34.50;17.63;;;6.30;99.90;;;;;;4920071;29;20347;-84
2021/11/28 06:51:57;;;;;;;33.03;18.27;;;6.20;99.90;;;;;;4920804;29;20188;-84
2021/11/28 06:54:24;;;;;;;34.20;17.53;;;6.30;99.90;;;;;;4920199;29;20271;-84
2021/11/28 06:56:51;;;;;;;34.80;18.13;;;6.20;99.90;;;;;;4937742;29;20184;-85
2021/11/28 06:59:18;;;;;;;33.50;18.10;;;6.10;99.90;;;;;;4920556;29;20192;-84
2021/11/28 07:01:46;;;;;;;33.67;18.13;;;6.20;99.90;;;;;;4920469;29;20571;-84
2021/11/28 07:04:12;;;;;;;35.53;18.70;;;6.10;99.90;;;;;;4920625;29;20266;-84
2021/11/28 07:06:37;;;;;;;32.33;17.27;;;6.20;99.90;;;;;;4921943;29;20295;-85
2021/11/28 07:09:04;;;;;;;32.90;17.87;;;6.10;99.90;;;;;;4932034;29;20204;-84
2021/11/28 07:11:30;;;;;;;34.00;17.30;;;6.10;99.90;;;;;;4937400;29;20219;-84
2021/11/28 07:13:56;;;;;;;35.07;16.33;;;6.00;99.90;;;;;;4920587;29;20220;-82
2021/11/28 07:16:22;;;;;;;32.87;17.77;;;6.00;99.90;;;;;;4920214;29;20176;-84
2021/11/28 07:18:48;;;;;;;29.03;15.77;;;6.00;99.90;;;;;;4924034;29;20246;-84
2021/11/28 07:21:16;;;;;;;30.07;16.50;;;6.20;99.90;;;;;;4929470;29;20227;-84
2021/11/28 07:23:42;;;;;;;30.37;16.13;;;6.00;99.90;;;;;;4908044;29;20219;-76
2021/11/28 07:26:09;;;;;;;29.27;15.97;;;6.10;99.90;;;;;;4918523;29;20739;-77
2021/11/28 07:28:35;;;;;;;28.13;15.77;;;6.00;99.90;;;;;;4935452;29;20572;-77
2021/11/28 07:31:02;;;;;;;26.30;15.07;;;5.90;99.90;;;;;;4935006;29;20180;-77
2021/11/28 07:33:28;;;;;;;25.77;14.60;;;5.90;99.90;;;;;;4935903;29;20283;-76
2021/11/28 07:35:53;;;;;;;25.60;14.27;;;5.80;99.90;;;;;;4935909;29;20219;-77
2021/11/28 07:38:19;;;;;;;28.77;15.23;;;5.70;99.90;;;;;;4935532;29;20675;-76
2021/11/28 07:40:44;;;;;;;26.57;14.97;;;5.70;99.90;;;;;;4935867;29;20208;-76
2021/11/28 07:43:11;;;;;;;28.50;15.63;;;5.80;99.90;;;;;;4935668;29;20203;-77
2021/11/28 07:45:37;;;;;;;26.93;14.77;;;5.80;99.90;;;;;;4935668;29;20184;-76
2021/11/28 07:48:04;;;;;;;26.50;14.30;;;5.90;99.90;;;;;;4935460;29;20206;-76
2021/11/28 07:50:29;;;;;;;27.57;15.73;;;6.00;99.90;;;;;;4934192;29;20196;-76
2021/11/28 07:52:55;;;;;;;29.83;14.57;;;6.10;99.90;;;;;;4933202;29;20195;-77
2021/11/28 07:55:21;;;;;;;24.87;13.07;;;6.10;99.90;;;;;;4935894;29;20183;-77
2021/11/28 07:57:46;;;;;;;31.10;15.73;;;6.10;99.90;;;;;;4935790;29;20292;-77
2021/11/28 08:00:13;;;;;;;28.67;14.57;;;6.40;99.90;;;;;;4927320;29;20694;-76
2021/11/28 08:02:39;;;;;;;27.50;14.47;;;6.50;99.90;;;;;;4932444;29;20319;-76
2021/11/28 08:05:07;;;;;;;30.43;15.77;;;6.60;99.90;;;;;;4917122;29;20267;-77
2021/11/28 08:07:32;;;;;;;27.00;14.67;;;6.50;99.90;;;;;;4934806;29;20259;-77
2021/11/28 08:09:58;;;;;;;27.77;14.53;;;6.40;99.90;;;;;;4935025;29;20216;-77
2021/11/28 08:12:25;;;;;;;27.10;14.53;;;6.30;99.90;;;;;;4934379;29;20188;-78
2021/11/28 08:14:51;;;;;;;27.17;15.03;;;6.40;99.90;;;;;;4935195;29;20182;-75
2021/11/28 08:17:17;;;;;;;28.70;14.47;;;6.40;99.90;;;;;;4917783;29;20573;-75
2021/11/28 08:19:43;;;;;;;28.37;15.03;;;6.50;99.90;;;;;;4934847;29;20192;-75
2021/11/28 08:22:09;;;;;;;29.27;15.40;;;6.30;99.90;;;;;;4934439;29;20263;-76
2021/11/28 08:24:35;;;;;;;30.63;15.57;;;6.30;99.90;;;;;;4940384;29;20704;-76
2021/11/28 08:27:01;;;;;;;29.60;15.60;;;6.50;99.90;;;;;;4934816;29;20194;-78
2021/11/28 11:39:58;;;;;;;26.67;16.70;;;7.90;99.90;;;;;;5236827;23;20485;-87
2021/11/28 11:42:27;;;;;;;23.37;15.57;;;7.90;99.90;;;;;;4975094;28;20222;-87
2021/11/28 11:44:54;;;;;;;22.80;15.70;;;7.80;99.90;;;;;;4956919;28;20550;-85
2021/11/28 11:47:22;;;;;;;21.33;15.33;;;7.80;99.90;;;;;;4954151;28;20187;-85
2021/11/28 11:49:48;;;;;;;21.87;13.77;;;7.60;99.90;;;;;;4954578;28;20249;-87
2021/11/28 11:52:16;;;;;;;19.13;13.90;;;7.70;99.90;;;;;;4975100;28;20298;-86
2021/11/28 11:54:55;;;;;;;20.00;14.10;;;7.80;99.90;;;;;;4974597;28;20183;-86
2021/11/28 11:57:32;;;;;;;20.17;13.70;;;7.70;99.90;;;;;;4953536;28;20187;-85
2021/11/28 12:00:22;;;;;;;19.67;13.67;;;7.70;99.90;;;;;;4971664;28;20230;-85
2021/11/28 12:02:50;;;;;;;19.80;12.97;;;7.70;99.90;;;;;;4974386;28;20207;-85
2021/11/28 12:05:25;;;;;;;19.27;13.23;;;7.80;99.90;;;;;;4957049;28;20199;-85
2021/11/28 12:07:57;;;;;;;19.20;13.43;;;7.70;99.90;;;;;;4957157;28;20182;-84
2021/11/28 12:10:33;;;;;;;16.13;11.40;;;7.80;99.90;;;;;;4956204;28;20282;-85
2021/11/28 12:13:02;;;;;;;17.13;11.33;;;7.90;99.90;;;;;;4973501;28;20238;-84
2021/11/28 12:15:33;;;;;;;11.03;7.83;;;8.00;99.90;;;;;;4974093;28;20319;-86
2021/11/28 12:17:59;;;;;;;10.67;7.77;;;7.90;99.90;;;;;;4971323;28;20241;-85
2021/11/28 12:20:43;;;;;;;10.77;8.17;;;8.00;99.90;;;;;;4973841;28;20640;-82
2021/11/28 12:23:10;;;;;;;10.70;7.30;;;8.10;99.90;;;;;;4948615;28;20194;-85
2021/11/28 12:25:38;;;;;;;7.50;6.33;;;8.20;99.90;;;;;;4946449;28;20212;-87
2021/11/28 12:28:22;;;;;;;9.10;6.57;;;8.20;99.90;;;;;;4949042;28;20234;-84
2021/11/28 12:30:52;;;;;;;8.27;6.20;;;8.20;99.90;;;;;;4952977;28;20188;-85
2021/11/28 12:33:18;;;;;;;8.27;6.60;;;8.20;99.90;;;;;;4951804;28;20642;-85
2021/11/28 12:35:44;;;;;;;9.87;7.47;;;8.30;99.90;;;;;;4945119;28;20233;-85
2021/11/28 13:11:25;;;;;;;6.90;5.90;;;7.20;99.90;;;;;;6044313;23;20419;-85
2021/11/28 13:13:57;;;;;;;6.37;5.67;;;7.10;99.90;;;;;;4916417;29;20633;-83
2021/11/28 13:16:25;;;;;;;5.03;4.53;;;7.10;99.90;;;;;;4918663;29;20275;-83
2021/11/28 13:18:53;;;;;;;5.30;3.80;;;7.10;99.90;;;;;;4935233;29;20220;-83
2021/11/28 13:21:24;;;;;;;4.07;2.73;;;7.10;99.90;;;;;;4918383;29;20566;-83
2021/11/28 13:23:51;;;;;;;2.20;2.00;;;7.10;99.90;;;;;;4918334;29;20191;-82
2021/11/28 13:26:20;;;;;;;4.33;2.03;;;7.20;99.90;;;;;;4938829;29;20555;-81
2021/11/28 13:28:46;;;;;;;1.97;1.80;;;7.20;99.90;;;;;;4935222;29;20188;-82
2021/11/28 13:31:33;;;;;;;2.67;1.47;;;7.10;99.90;;;;;;4935391;29;20653;-83
2021/11/28 13:34:00;;;;;;;2.50;1.90;;;7.00;99.90;;;;;;4935120;29;20719;-83
2021/11/28 13:36:38;;;;;;;4.87;1.87;;;6.90;99.90;;;;;;4918282;29;20306;-83
2021/11/28 13:39:07;;;;;;;1.77;1.63;;;6.90;99.90;;;;;;4935178;29;20293;-83
2021/11/28 13:41:32;;;;;;;2.33;1.77;;;7.00;99.90;;;;;;4935041;29;20227;-83
2021/11/28 13:44:00;;;;;;;2.60;1.60;;;7.00;99.90;;;;;;4935348;29;20227;-83
2021/11/28 13:46:31;;;;;;;2.40;1.90;;;7.10;99.90;;;;;;4935381;29;20191;-83
2021/11/28 13:49:18;;;;;;;2.77;1.57;;;7.30;99.90;;;;;;4935427;29;20228;-83
2021/11/28 14:22:49;;;;;;;3.13;2.20;;;7.60;99.90;;;;;;5615485;23;20231;-85
2021/11/28 14:25:23;;;;;;;2.07;1.87;;;7.50;99.90;;;;;;4952766;28;20207;-84
2021/11/28 14:28:19;;;;;;;2.30;1.80;;;7.60;99.90;;;;;;4957561;28;20638;-83
2021/11/28 14:30:56;;;;;;;3.37;2.33;;;7.50;99.90;;;;;;4940083;29;20184;-84
2021/11/28 14:33:32;;;;;;;4.13;1.80;;;7.60;99.90;;;;;;4957192;28;20198;-84
2021/11/28 14:36:17;;;;;;;5.33;2.00;;;7.70;99.90;;;;;;4956847;28;20545;-84
2021/11/28 14:39:12;;;;;;;3.17;1.87;;;7.60;99.90;;;;;;4956806;28;20187;-84
2021/11/28 14:41:49;;;;;;;3.17;1.77;;;7.30;99.90;;;;;;4956253;28;20215;-84
2021/11/28 14:44:21;;;;;;;9.77;2.00;;;7.20;99.90;;;;;;4940035;29;20183;-83
2021/11/28 14:46:48;;;;;;;3.43;2.03;;;7.20;99.90;;;;;;4957315;28;20178;-84
2021/11/28 14:49:16;;;;;;;3.00;1.50;;;7.30;99.90;;;;;;4957015;28;20656;-83
2021/11/28 14:51:45;;;;;;;3.70;1.80;;;7.40;99.90;;;;;;4956701;28;20184;-83
2021/11/28 14:54:14;;;;;;;3.33;1.97;;;7.40;99.90;;;;;;4956672;28;20191;-84
2021/11/28 14:56:51;;;;;;;3.50;2.07;;;7.60;99.90;;;;;;4956813;28;20226;-84
2021/11/28 14:59:23;;;;;;;5.67;2.33;;;7.60;99.90;;;;;;4939595;29;20183;-84
2021/11/28 15:02:02;;;;;;;6.20;3.20;;;7.70;99.90;;;;;;4939057;29;20215;-83
2021/11/28 15:04:27;;;;;;;6.90;4.37;;;7.70;99.90;;;;;;4956716;28;20175;-84
2021/11/28 15:07:06;;;;;;;8.47;4.30;;;7.50;99.90;;;;;;4938854;29;20186;-84
2021/11/28 15:09:33;;;;;;;8.47;4.50;;;7.40;99.90;;;;;;4939550;29;20258;-84
2021/11/28 15:12:01;;;;;;;6.93;3.80;;;7.30;99.90;;;;;;4956426;28;20267;-84
2021/11/28 15:14:28;;;;;;;5.93;3.10;;;7.20;99.90;;;;;;4956519;28;20181;-84
2021/11/28 15:16:55;;;;;;;4.23;3.60;;;7.10;99.90;;;;;;4939908;28;20625;-84
2021/11/28 15:19:27;;;;;;;5.40;4.07;;;7.10;99.90;;;;;;4957911;28;20238;-85
2021/11/28 15:21:54;;;;;;;5.77;3.80;;;7.00;99.90;;;;;;4969462;28;20218;-84
2021/11/28 15:24:20;;;;;;;7.20;4.33;;;7.00;99.90;;;;;;4956559;28;20187;-83
2021/11/28 15:26:47;;;;;;;7.03;3.97;;;7.10;99.90;;;;;;4956364;28;20698;-84
2021/11/28 15:29:14;;;;;;;5.70;3.73;;;7.10;99.90;;;;;;4938940;29;20254;-83
2021/11/28 15:31:40;;;;;;;4.53;3.37;;;7.00;99.90;;;;;;4956366;28;20704;-83
2021/11/28 15:34:06;;;;;;;5.03;2.30;;;7.00;99.90;;;;;;4956116;28;20191;-83
2021/11/28 15:36:32;;;;;;;4.40;2.53;;;6.90;99.90;;;;;;4955824;28;20244;-84
2021/11/28 15:38:57;;;;;;;7.83;3.90;;;6.90;99.90;;;;;;4956203;28;20188;-83
2021/11/28 15:41:23;;;;;;;7.73;5.60;;;6.80;99.90;;;;;;4938728;29;20675;-84
2021/11/28 15:43:49;;;;;;;6.23;4.57;;;6.70;99.90;;;;;;4948626;28;20270;-85
2021/11/28 15:46:15;;;;;;;6.20;2.63;;;6.80;99.90;;;;;;4959692;28;20215;-84
2021/11/28 15:48:40;;;;;;;9.43;6.63;;;6.80;99.90;;;;;;4955954;28;20257;-84
2021/11/28 15:51:06;;;;;;;11.43;5.93;;;6.70;99.90;;;;;;4938641;29;20549;-83
2021/11/28 15:53:32;;;;;;;8.10;3.70;;;6.70;99.90;;;;;;4955907;28;20191;-79
2021/11/28 15:56:02;;;;;;;8.30;3.73;;;6.70;99.90;;;;;;4955262;28;20198;-78
2021/11/28 15:58:29;;;;;;;11.13;3.10;;;6.70;99.90;;;;;;4955315;28;20261;-80
2021/11/28 16:00:54;;;;;;;6.77;2.90;;;6.70;99.90;;;;;;4955122;28;20547;-79
2021/11/28 16:03:20;;;;;;;7.13;2.80;;;6.70;99.90;;;;;;4955183;28;20672;-80
2021/11/28 16:05:45;;;;;;;4.67;2.33;;;6.70;99.90;;;;;;4937835;29;20290;-79
2021/11/28 16:08:11;;;;;;;6.73;2.73;;;6.70;99.90;;;;;;4954764;28;20199;-77
2021/11/28 16:10:37;;;;;;;9.37;3.87;;;6.60;99.90;;;;;;4954980;28;20189;-77
2021/11/28 16:13:02;;;;;;;4.90;2.20;;;6.70;99.90;;;;;;4937182;29;20663;-77
2021/11/28 16:15:28;;;;;;;10.77;2.47;;;6.60;99.90;;;;;;4954950;28;20214;-79
2021/11/28 16:17:54;;;;;;;7.13;2.50;;;6.60;99.90;;;;;;4954810;28;20227;-79
2021/11/28 16:20:19;;;;;;;10.80;2.83;;;6.50;99.90;;;;;;4937319;28;20183;-78
2021/11/28 16:22:47;;;;;;;10.37;2.87;;;6.60;99.90;;;;;;4954847;28;20726;-77
2021/11/28 16:25:14;;;;;;;10.70;2.60;;;6.50;99.90;;;;;;4937911;28;20206;-86
2021/11/28 16:27:41;;;;;;;7.13;2.67;;;6.50;99.90;;;;;;4954986;28;20191;-79
2021/11/28 16:30:09;;;;;;;6.60;2.63;;;6.30;99.90;;;;;;4954802;28;20207;-77
2021/11/28 16:32:35;;;;;;;7.23;2.40;;;6.40;99.90;;;;;;4971742;28;20202;-78
2021/11/28 16:35:01;;;;;;;10.87;3.40;;;6.40;99.90;;;;;;4954450;28;20183;-78
2021/11/28 16:37:27;;;;;;;14.10;3.73;;;6.50;99.90;;;;;;4954453;28;20187;-79
2021/11/28 16:39:53;;;;;;;17.43;4.00;;;6.60;99.90;;;;;;4954774;28;20275;-78
2021/11/28 16:42:20;;;;;;;12.03;3.17;;;6.60;99.90;;;;;;4954410;28;20347;-79
2021/11/28 16:44:45;;;;;;;14.47;3.87;;;6.30;99.90;;;;;;4954519;28;20183;-78
2021/11/28 16:47:11;;;;;;;13.53;4.53;;;6.10;99.90;;;;;;4936748;29;20191;-78
2021/11/28 16:49:37;;;;;;;9.80;3.03;;;6.20;99.90;;;;;;4953235;28;20199;-79
2021/11/28 16:52:03;;;;;;;13.90;3.70;;;6.30;99.90;;;;;;4942295;28;20210;-78
2021/11/28 16:54:29;;;;;;;11.03;3.83;;;6.30;99.90;;;;;;4953198;28;20183;-78
2021/11/28 16:56:56;;;;;;;8.00;3.07;;;6.30;99.90;;;;;;4953957;28;20550;-78
2021/11/28 16:59:24;;;;;;;11.17;3.67;;;6.20;99.90;;;;;;4952799;28;20270;-79
2021/11/28 17:01:51;;;;;;;14.03;6.40;;;6.20;99.90;;;;;;4953436;28;20302;-80
2021/11/28 17:04:17;;;;;;;7.93;2.87;;;6.10;99.90;;;;;;4953375;28;20187;-79
2021/11/28 17:06:43;;;;;;;10.10;3.43;;;6.10;99.90;;;;;;4936526;28;20225;-78
2021/11/28 17:09:09;;;;;;;13.30;5.07;;;6.20;99.90;;;;;;4952932;28;20596;-78